Time;durP1;ratioP1;P1;durP2;ratioP2;P2;SDS_P1;SDS_P2;PMS_P1;PMS_P2;Temp;Humidity;BMP_temperature;BMP_pressure;BME280_temperature;BME280_humidity;BME280_pressure;Samples;Min_cycle;Max_cycle;Signal;HPM_P1;HPM_P2
2022/10/03 00:02:35;;;;;;;;;;;15.80;99.90;;;;;;5015759;28;20000;-24
2022/10/03 00:05:03;;;;;;;;;;;15.80;99.90;;;;;;5016217;28;19912;-24
2022/10/03 00:07:51;;;;;;;;;;;15.80;99.90;;;;;;5016045;28;20397;-25
2022/10/03 00:10:21;;;;;;;;;;;15.80;99.90;;;;;;5015977;28;19928;-25
2022/10/03 00:13:07;;;;;;;;;;;15.80;99.90;;;;;;5015807;28;19905;-25
2022/10/03 00:15:38;;;;;;;;;;;15.80;99.90;;;;;;5014498;28;20425;-24
2022/10/03 00:18:27;;;;;;;;;;;15.80;99.90;;;;;;5014478;28;19917;-25
2022/10/03 00:21:12;;;;;;;;;;;15.80;99.90;;;;;;5012427;28;19916;-25
2022/10/03 00:23:37;;;;;;;;;;;15.80;99.90;;;;;;5014432;28;19911;-25
2022/10/03 00:26:27;;;;;;;;;;;15.80;99.90;;;;;;5015982;28;19909;-24
2022/10/03 00:29:04;;;;;;;;;;;15.80;99.90;;;;;;5015533;28;19913;-25
2022/10/03 00:31:41;;;;;;;;;;;15.80;99.90;;;;;;5015366;28;19905;-25
2022/10/03 00:34:14;;;;;;;;;;;15.80;99.90;;;;;;5015488;28;20371;-25
2022/10/03 00:36:49;;;;;;;;;;;15.80;99.90;;;;;;5015470;28;19914;-25
2022/10/03 00:39:35;;;;;;;;;;;15.80;99.90;;;;;;5015286;28;19909;-24
2022/10/03 00:42:01;;;;;;;;;;;15.80;99.90;;;;;;5015080;28;20055;-24
2022/10/03 00:44:49;;;;;;;;;;;15.80;99.90;;;;;;5015275;28;20004;-25
2022/10/03 00:47:23;;;;;;;;;;;15.80;99.90;;;;;;5015087;28;20410;-24
2022/10/03 00:50:17;;;;;;;;;;;15.80;99.90;;;;;;5014989;28;19905;-24
2022/10/03 00:53:06;;;;;;;;;;;15.80;99.90;;;;;;5010453;28;19910;-24
2022/10/03 00:55:32;;;;;;;;;;;15.80;99.90;;;;;;5015001;28;19933;-25
2022/10/03 00:57:58;;;;;;;;;;;15.80;99.90;;;;;;5014986;28;19960;-25
2022/10/03 01:00:28;;;;;;;;;;;15.80;99.90;;;;;;5014684;28;19917;-24
2022/10/03 01:03:03;;;;;;;;;;;15.70;99.90;;;;;;5014902;28;19905;-24
2022/10/03 01:05:47;;;;;;;;;;;15.70;99.90;;;;;;5014945;28;19975;-24
2022/10/03 01:08:15;;;;;;;;;;;15.70;99.90;;;;;;5041165;22;19929;-26
2022/10/03 01:11:02;;;;;;;;;;;15.80;99.90;;;;;;4995712;28;19926;-26
2022/10/03 01:13:38;;;;;;;;;;;15.70;99.90;;;;;;4994418;28;19909;-26
2022/10/03 01:16:10;;;;;;;;;;;15.80;99.90;;;;;;4995460;28;19906;-26
2022/10/03 01:18:42;;;;;;;;;;;15.80;99.90;;;;;;4995493;28;20310;-26
2022/10/03 01:21:08;;;;;;;;;;;15.80;99.90;;;;;;4995351;28;20401;-26
2022/10/03 01:23:33;;;;;;;;;;;15.80;99.90;;;;;;4995544;28;19913;-26
2022/10/03 01:26:17;;;;;;;;;;;15.80;99.90;;;;;;4995428;28;19906;-26
2022/10/03 01:31:37;;;;;;;;;;;15.80;99.90;;;;;;4995620;28;20315;-26
2022/10/03 01:34:16;;;;;;;;;;;15.80;99.90;;;;;;4995495;28;19961;-26
2022/10/03 01:36:50;;;;;;;;;;;15.70;99.90;;;;;;4995485;28;19909;-26
2022/10/03 01:39:41;;;;;;;;;;;15.70;99.90;;;;;;4995101;28;19905;-26
2022/10/03 01:42:13;;;;;;;;;;;15.70;99.90;;;;;;4994842;28;19920;-26
2022/10/03 01:44:39;;;;;;;;;;;15.70;99.90;;;;;;4995302;28;20481;-26
2022/10/03 01:47:05;;;;;;;;;;;15.70;99.90;;;;;;4995149;28;19910;-25
2022/10/03 01:49:35;;;;;;;;;;;15.70;99.90;;;;;;4995121;28;19906;-26
2022/10/03 01:52:19;;;;;;;;;;;15.70;99.90;;;;;;4995269;28;20371;-25
2022/10/03 01:54:44;;;;;;;;;;;15.70;99.90;;;;;;4995097;28;20685;-26
2022/10/03 01:57:10;;;;;;;;;;;15.70;99.90;;;;;;4995074;28;19910;-26
2022/10/03 01:59:39;;;;;;;;;;;15.70;99.90;;;;;;4994957;28;19905;-26
2022/10/03 02:02:09;;;;;;;;;;;15.70;99.90;;;;;;4994777;28;19910;-26
2022/10/03 02:04:34;;;;;;;;;;;15.70;99.90;;;;;;4994357;28;19905;-26
2022/10/03 02:07:06;;;;;;;;;;;15.70;99.90;;;;;;4994774;28;20322;-26
2022/10/03 02:09:40;;;;;;;;;;;15.70;99.90;;;;;;4994524;28;19910;-26
2022/10/03 02:12:22;;;;;;;;;;;15.70;99.90;;;;;;4994688;28;20028;-25
2022/10/03 02:14:48;;;;;;;;;;;15.70;99.90;;;;;;4994855;28;19906;-25
2022/10/03 02:17:33;;;;;;;;;;;15.70;99.90;;;;;;4994642;28;19913;-26
2022/10/03 02:20:06;;;;;;;;;;;15.70;99.90;;;;;;4987184;28;19906;-26
2022/10/03 02:22:34;;;;;;;;;;;15.70;99.90;;;;;;4994619;28;19941;-25
2022/10/03 02:25:09;;;;;;;;;;;15.70;99.90;;;;;;4994202;28;19906;-26
2022/10/03 02:27:35;;;;;;;;;;;15.70;99.90;;;;;;4994585;28;20000;-26
2022/10/03 02:30:01;;;;;;;;;;;15.70;99.90;;;;;;4994404;28;19979;-26
2022/10/03 02:32:45;;;;;;;;;;;15.70;99.90;;;;;;4994456;28;19910;-26
2022/10/03 02:35:16;;;;;;;;;;;15.70;99.90;;;;;;4994510;28;19964;-26
2022/10/03 02:37:50;;;;;;;;;;;15.70;99.90;;;;;;4994566;28;20348;-26
2022/10/03 02:40:38;;;;;;;;;;;15.70;99.90;;;;;;4994003;28;19909;-26
2022/10/03 02:43:06;;;;;;;;;;;15.70;99.90;;;;;;4994426;28;19912;-26
2022/10/03 02:45:32;;;;;;;;;;;15.60;99.90;;;;;;4994129;28;19906;-26
2022/10/03 02:48:16;;;;;;;;;;;15.70;99.90;;;;;;4994143;28;19909;-26
2022/10/03 02:51:17;;;;;;;;;;;15.60;99.90;;;;;;4994039;28;20367;-26
2022/10/03 02:54:02;;;;;;;;;;;15.60;99.90;;;;;;4952937;29;19962;-26
2022/10/03 02:56:47;;;;;;;;;;;15.60;99.90;;;;;;4990376;28;19913;-26
2022/10/03 02:59:41;;;;;;;;;;;15.60;99.90;;;;;;4976230;28;19905;-26
2022/10/03 03:02:26;;;;;;;;;;;15.60;99.90;;;;;;4994024;28;19914;-26
2022/10/03 03:05:10;;;;;;;;;;;15.60;99.90;;;;;;4993978;28;19916;-26
2022/10/03 03:07:57;;;;;;;;;;;15.60;99.90;;;;;;4993555;28;20012;-26
2022/10/03 03:10:43;;;;;;;;;;;15.60;99.90;;;;;;4993652;28;19905;-26
2022/10/03 03:13:19;;;;;;;;;;;15.60;99.90;;;;;;4976636;28;19913;-26
2022/10/03 03:16:04;;;;;;;;;;;15.60;99.90;;;;;;4993568;28;19910;-26
2022/10/03 03:18:38;;;;;;;;;;;15.60;99.90;;;;;;4993435;28;19910;-26
2022/10/03 03:21:16;;;;;;;;;;;15.60;99.90;;;;;;4993490;28;19909;-25
2022/10/03 03:24:00;;;;;;;;;;;15.60;99.90;;;;;;4993661;28;20272;-26
2022/10/03 03:26:44;;;;;;;;;;;15.60;99.90;;;;;;4993291;28;20256;-26
2022/10/03 03:29:21;;;;;;;;;;;15.60;99.90;;;;;;4993230;28;19913;-25
2022/10/03 03:31:55;;;;;;;;;;;15.60;99.90;;;;;;4993331;28;19909;-26
2022/10/03 03:34:24;;;;;;;;;;;15.60;99.90;;;;;;4993632;28;19909;-26
2022/10/03 03:36:50;;;;;;;;;;;15.60;99.90;;;;;;4992779;28;19937;-26
2022/10/03 03:39:23;;;;;;;;;;;15.60;99.90;;;;;;4993403;28;19975;-26
2022/10/03 03:41:49;;;;;;;;;;;15.60;99.90;;;;;;4993542;28;20355;-26
2022/10/03 03:44:24;;;;;;;;;;;15.60;99.90;;;;;;4993476;28;20415;-26
2022/10/03 03:46:50;;;;;;;;;;;15.60;99.90;;;;;;4993400;28;19909;-26
2022/10/03 03:49:30;;;;;;;;;;;15.60;99.90;;;;;;4993375;28;19916;-26
2022/10/03 03:52:06;;;;;;;;;;;15.60;99.90;;;;;;4993415;28;19905;-26
2022/10/03 03:54:34;;;;;;;;;;;15.60;99.90;;;;;;4993708;28;19961;-26
2022/10/03 03:57:26;;;;;;;;;;;15.60;99.90;;;;;;4993447;28;20264;-26
2022/10/03 04:00:01;;;;;;;;;;;15.50;99.90;;;;;;4993350;28;19945;-26
2022/10/03 04:02:29;;;;;;;;;;;15.50;99.90;;;;;;4993381;28;20342;-26
2022/10/03 04:05:02;;;;;;;;;;;15.50;99.90;;;;;;4993434;28;19905;-26
2022/10/03 04:07:35;;;;;;;;;;;15.50;99.90;;;;;;4993227;28;19960;-26
2022/10/03 04:10:04;;;;;;;;;;;15.50;99.90;;;;;;4992989;28;20345;-26
2022/10/03 04:12:48;;;;;;;;;;;15.50;99.90;;;;;;4993403;28;20359;-26
2022/10/03 04:15:32;;;;;;;;;;;15.50;99.90;;;;;;4993005;28;19906;-26
2022/10/03 04:21:18;;;;;;;;;;;15.50;99.90;;;;;;4992846;28;19932;-25
2022/10/03 04:23:44;;;;;;;;;;;15.50;99.90;;;;;;4993209;28;20004;-26
2022/10/03 04:26:09;;;;;;;;;;;15.50;99.90;;;;;;4993117;28;20000;-26
2022/10/03 04:28:47;;;;;;;;;;;15.50;99.90;;;;;;4992791;28;19906;-25
2022/10/03 04:31:25;;;;;;;;;;;15.50;99.90;;;;;;4993174;28;19913;-26
2022/10/03 04:34:09;;;;;;;;;;;15.50;99.90;;;;;;4993041;28;19906;-26
2022/10/03 04:36:52;;;;;;;;;;;15.50;99.90;;;;;;4992957;28;19917;-26
2022/10/03 04:39:31;;;;;;;;;;;15.50;99.90;;;;;;4993147;28;19912;-26
2022/10/03 04:42:16;;;;;;;;;;;15.50;99.90;;;;;;4992859;28;19909;-26
2022/10/03 04:44:49;;;;;;;;;;;15.50;99.90;;;;;;4971959;28;20430;-26
2022/10/03 04:47:33;;;;;;;;;;;15.50;99.90;;;;;;4994487;28;19960;-26
2022/10/03 04:50:01;;;;;;;;;;;15.50;99.90;;;;;;4996265;28;19912;-26
2022/10/03 04:52:38;;;;;;;;;;;15.50;99.90;;;;;;4996581;28;20493;-26
2022/10/03 04:55:22;;;;;;;;;;;15.50;99.90;;;;;;4996802;28;19905;-26
2022/10/03 04:57:59;;;;;;;;;;;15.50;99.90;;;;;;4996389;28;19909;-25
2022/10/03 05:00:54;;;;;;;;;;;15.50;99.90;;;;;;4996370;28;20249;-26
2022/10/03 05:03:42;;;;;;;;;;;15.40;99.90;;;;;;4987548;28;19948;-26
2022/10/03 05:06:21;;;;;;;;;;;15.40;99.90;;;;;;4996218;28;19956;-26
2022/10/03 05:08:58;;;;;;;;;;;15.40;99.90;;;;;;4996062;28;19918;-26
2022/10/03 05:11:23;;;;;;;;;;;15.40;99.90;;;;;;4996458;28;20321;-26
2022/10/03 05:14:04;;;;;;;;;;;15.40;99.90;;;;;;4996245;28;20023;-26
2022/10/03 05:16:36;;;;;;;;;;;15.40;99.90;;;;;;4996354;28;19905;-26
2022/10/03 05:19:01;;;;;;;;;;;15.40;99.90;;;;;;4995721;28;19916;-26
2022/10/03 05:21:30;;;;;;;;;;;15.40;99.90;;;;;;4996100;28;20012;-26
2022/10/03 05:24:01;;;;;;;;;;;15.40;99.90;;;;;;4996149;28;20439;-26
2022/10/03 05:26:30;;;;;;;;;;;15.40;99.90;;;;;;4996110;28;19914;-26
2022/10/03 05:29:01;;;;;;;;;;;15.40;99.90;;;;;;4995632;28;19906;-26
2022/10/03 05:31:45;;;;;;;;;;;15.40;99.90;;;;;;4995580;28;19917;-25
2022/10/03 05:34:16;;;;;;;;;;;15.40;99.90;;;;;;4995660;28;19912;-26
2022/10/03 05:36:48;;;;;;;;;;;15.40;99.90;;;;;;4978237;28;19959;-26
2022/10/03 05:39:14;;;;;;;;;;;15.40;99.90;;;;;;4995120;28;19952;-25
2022/10/03 05:41:48;;;;;;;;;;;15.40;99.90;;;;;;4994888;28;19909;-25
2022/10/03 05:44:18;;;;;;;;;;;15.40;99.90;;;;;;4995557;28;19953;-26
2022/10/03 05:46:46;;;;;;;;;;;15.40;99.90;;;;;;4995544;28;19917;-26
2022/10/03 05:49:31;;;;;;;;;;;15.40;99.90;;;;;;4995339;28;19951;-26
2022/10/03 05:52:00;;;;;;;;;;;15.40;99.90;;;;;;4995360;28;19933;-25
2022/10/03 05:54:25;;;;;;;;;;;15.40;99.90;;;;;;4995530;28;19949;-26
2022/10/03 05:56:54;;;;;;;;;;;15.40;99.90;;;;;;4995285;28;19928;-25
2022/10/03 05:59:19;;;;;;;;;;;15.40;99.90;;;;;;4994815;28;20272;-26
2022/10/03 06:01:51;;;;;;;;;;;15.40;99.90;;;;;;4995210;28;19963;-26
2022/10/03 06:04:35;;;;;;;;;;;15.40;99.90;;;;;;4995200;28;20128;-26
2022/10/03 06:07:01;;;;;;;;;;;15.40;99.90;;;;;;4994610;28;19932;-26
2022/10/03 06:09:29;;;;;;;;;;;15.40;99.90;;;;;;4994778;28;19910;-26
2022/10/03 06:12:15;;;;;;;;;;;15.40;99.90;;;;;;4977287;28;19910;-26
2022/10/03 06:15:01;;;;;;;;;;;15.30;99.90;;;;;;4987302;28;19906;-26
2022/10/03 06:17:37;;;;;;;;;;;15.40;99.90;;;;;;4994794;28;19956;-26
2022/10/03 06:20:11;;;;;;;;;;;15.30;99.90;;;;;;4994855;28;19906;-26
2022/10/03 06:22:56;;;;;;;;;;;15.40;99.90;;;;;;4994640;28;19910;-26
2022/10/03 06:25:36;;;;;;;;;;;15.30;99.90;;;;;;4994612;28;19952;-26
2022/10/03 06:28:17;;;;;;;;;;;15.30;99.90;;;;;;4976972;28;19906;-26
2022/10/03 06:31:01;;;;;;;;;;;15.30;99.90;;;;;;4994409;28;19905;-25
2022/10/03 06:33:47;;;;;;;;;;;15.30;99.90;;;;;;4995119;28;19906;-26
2022/10/03 06:36:13;;;;;;;;;;;15.30;99.90;;;;;;4994338;28;19909;-26
2022/10/03 06:38:38;;;;;;;;;;;15.30;99.90;;;;;;4994329;28;19905;-25
2022/10/03 06:41:24;;;;;;;;;;;15.30;99.90;;;;;;4994101;28;19910;-26
2022/10/03 06:43:50;;;;;;;;;;;15.30;99.90;;;;;;4973411;28;20496;-26
2022/10/03 06:46:37;;;;;;;;;;;15.40;99.90;;;;;;4994128;28;20405;-26
2022/10/03 06:49:25;;;;;;;;;;;15.30;99.90;;;;;;4994086;28;20334;-25
2022/10/03 06:52:09;;;;;;;;;;;15.30;99.90;;;;;;4993777;28;19905;-26
2022/10/03 06:54:41;;;;;;;;;;;15.30;99.90;;;;;;4993716;28;19913;-26
2022/10/03 06:57:15;;;;;;;;;;;15.30;99.90;;;;;;4993888;28;19916;-26
2022/10/03 07:00:00;;;;;;;;;;;15.30;99.90;;;;;;4993828;28;19960;-26
2022/10/03 07:02:34;;;;;;;;;;;15.30;99.90;;;;;;4993719;28;19910;-26
2022/10/03 07:05:19;;;;;;;;;;;15.30;99.90;;;;;;4993516;28;19906;-26
2022/10/03 07:08:02;;;;;;;;;;;15.30;99.90;;;;;;5023831;22;19928;-24
2022/10/03 07:10:37;;;;;;;;;;;15.30;99.90;;;;;;5011931;28;20025;-25
2022/10/03 07:13:05;;;;;;;;;;;15.30;99.90;;;;;;5011941;28;20004;-24
2022/10/03 07:15:43;;;;;;;;;;;15.30;99.90;;;;;;5011365;28;19906;-25
2022/10/03 07:18:09;;;;;;;;;;;15.30;99.90;;;;;;5012684;28;19960;-25
2022/10/03 07:20:52;;;;;;;;;;;15.30;99.90;;;;;;5012373;28;19917;-25
2022/10/03 07:23:36;;;;;;;;;;;15.30;99.90;;;;;;5011237;28;19909;-25
2022/10/03 07:26:09;;;;;;;;;;;15.30;99.90;;;;;;5012368;28;19943;-24
2022/10/03 07:28:48;;;;;;;;;;;15.30;99.90;;;;;;5012487;28;20018;-25
2022/10/03 07:31:35;;;;;;;;;;;15.30;99.90;;;;;;5012492;28;19912;-25
2022/10/03 07:34:09;;;;;;;;;;;15.30;99.90;;;;;;5011369;28;20376;-25
2022/10/03 07:39:47;;;;;;;;;;;15.30;99.90;;;;;;5012261;28;20401;-25
2022/10/03 07:42:12;;;;;;;;;;;15.30;99.90;;;;;;5012181;28;19963;-24
2022/10/03 07:44:57;;;;;;;;;;;15.30;99.90;;;;;;5012441;28;19968;-24
2022/10/03 07:47:31;;;;;;;;;;;15.30;99.90;;;;;;5012116;28;19959;-24
2022/10/03 07:50:02;;;;;;;;;;;15.30;99.90;;;;;;5012150;28;20278;-25
2022/10/03 07:52:47;;;;;;;;;;;15.30;99.90;;;;;;5012572;28;19917;-25
2022/10/03 07:55:31;;;;;;;;;;;15.30;99.90;;;;;;5012213;28;19916;-25
2022/10/03 07:57:56;;;;;;;;;;;15.30;99.90;;;;;;5012472;28;19912;-25
2022/10/03 08:00:23;;;;;;;;;;;15.30;99.90;;;;;;5012593;28;19905;-25
2022/10/03 08:03:07;;;;;;;;;;;15.30;99.90;;;;;;5012382;28;19909;-25
2022/10/03 08:05:42;;;;;;;;;;;15.30;99.90;;;;;;5011947;28;20282;-24
2022/10/03 08:08:11;;;;;;;;;;;15.30;99.90;;;;;;5010598;28;19963;-25
2022/10/03 08:10:51;;;;;;;;;;;15.30;99.90;;;;;;5012174;28;19992;-25
2022/10/03 08:13:17;;;;;;;;;;;15.30;99.90;;;;;;5012265;28;19905;-25
2022/10/03 08:15:55;;;;;;;;;;;15.30;99.90;;;;;;5012031;28;20004;-25
2022/10/03 08:18:23;;;;;;;;;;;15.30;99.90;;;;;;5012170;28;20351;-25
2022/10/03 08:20:55;;;;;;;;;;;15.30;99.90;;;;;;5011956;28;19941;-25
2022/10/03 08:23:30;;;;;;;;;;;15.30;99.90;;;;;;5013894;28;19905;-25
2022/10/03 08:25:58;;;;;;;;;;;15.30;99.90;;;;;;5015757;28;20385;-25
2022/10/03 08:28:30;;;;;;;;;;;15.30;99.90;;;;;;5015373;28;19906;-25
2022/10/03 08:31:14;;;;;;;;;;;15.30;99.90;;;;;;5015527;28;19906;-25
2022/10/03 08:33:48;;;;;;;;;;;15.30;99.90;;;;;;5014539;28;19905;-25
2022/10/03 08:36:23;;;;;;;;;;;15.30;99.90;;;;;;5015542;28;19945;-25
2022/10/03 08:39:20;;;;;;;;;;;15.30;99.90;;;;;;5015112;28;20397;-25
2022/10/03 08:41:55;;;;;;;;;;;15.30;99.90;;;;;;5003240;28;20000;-25
2022/10/03 08:44:29;;;;;;;;;;;15.30;99.90;;;;;;5015567;28;19905;-25
2022/10/03 08:46:56;;;;;;;;;;;15.30;99.90;;;;;;5015301;28;19905;-25
2022/10/03 08:49:24;;;;;;;;;;;15.30;99.90;;;;;;5014028;28;19913;-25
2022/10/03 08:51:54;;;;;;;;;;;15.30;99.90;;;;;;5015386;28;19952;-25
2022/10/03 08:54:29;;;;;;;;;;;15.30;99.90;;;;;;5015346;28;19912;-25
2022/10/03 08:57:05;;;;;;;;;;;15.30;99.90;;;;;;5015187;28;19906;-25
2022/10/03 08:59:48;;;;;;;;;;;15.30;99.90;;;;;;5013720;28;19906;-24
2022/10/03 09:02:26;;;;;;;;;;;15.30;99.90;;;;;;5015085;28;19936;-25
2022/10/03 09:04:58;;;;;;;;;;;15.30;99.90;;;;;;5015183;28;19906;-25
2022/10/03 09:07:27;;;;;;;;;;;15.30;99.90;;;;;;5013555;28;20362;-25
2022/10/03 09:09:55;;;;;;;;;;;15.30;99.90;;;;;;5015001;28;19968;-25
2022/10/03 09:12:20;;;;;;;;;;;15.30;99.90;;;;;;5015601;28;19964;-25
2022/10/03 09:14:51;;;;;;;;;;;15.20;99.90;;;;;;5015004;28;19909;-25
2022/10/03 09:17:26;;;;;;;;;;;15.00;99.90;;;;;;5015113;28;19905;-25
2022/10/03 09:20:12;;;;;;;;;;;15.00;99.90;;;;;;5015292;28;19914;-25
2022/10/03 09:22:53;;;;;;;;;;;15.00;99.90;;;;;;5014888;28;19913;-25
2022/10/03 09:25:29;;;;;;;;;;;15.00;99.90;;;;;;5015014;28;19910;-25
2022/10/03 09:28:13;;;;;;;;;;;15.10;99.90;;;;;;5015008;28;19959;-25
2022/10/03 09:31:02;;;;;;;;;;;15.10;99.90;;;;;;5014480;28;19995;-25
2022/10/03 09:33:28;;;;;;;;;;;15.10;99.90;;;;;;5014173;28;19909;-25
2022/10/03 09:35:59;;;;;;;;;;;15.10;99.90;;;;;;5013500;28;20359;-25
2022/10/03 09:38:25;;;;;;;;;;;15.10;99.90;;;;;;5014375;28;20006;-25
2022/10/03 09:40:59;;;;;;;;;;;15.10;99.90;;;;;;5014588;28;19968;-25
2022/10/03 09:43:43;;;;;;;;;;;15.20;99.90;;;;;;5014644;28;19905;-25
2022/10/03 09:46:09;;;;;;;;;;;15.20;99.90;;;;;;5013178;28;19963;-25
2022/10/03 09:48:40;;;;;;;;;;;15.20;99.90;;;;;;5014574;28;19913;-25
2022/10/03 09:51:18;;;;;;;;;;;15.20;99.90;;;;;;5014252;28;19906;-25
2022/10/03 09:53:53;;;;;;;;;;;15.20;99.90;;;;;;5014298;28;20367;-25
2022/10/03 09:56:31;;;;;;;;;;;15.20;99.90;;;;;;5013246;28;20011;-25
2022/10/03 09:59:04;;;;;;;;;;;15.20;99.90;;;;;;5014200;28;19916;-25
2022/10/03 10:01:29;;;;;;;;;;;15.20;99.90;;;;;;5014179;28;19909;-25
2022/10/03 10:04:20;;;;;;;;;;;15.20;99.90;;;;;;5014222;28;19912;-25
2022/10/03 10:06:46;;;;;;;;;;;15.20;99.90;;;;;;5012870;28;19909;-25
2022/10/03 10:09:30;;;;;;;;;;;15.20;99.90;;;;;;5013754;28;19917;-25
2022/10/03 10:12:04;;;;;;;;;;;15.20;99.90;;;;;;5013827;28;19905;-25
2022/10/03 10:14:33;;;;;;;;;;;15.20;99.90;;;;;;5013944;28;20386;-25
2022/10/03 10:17:17;;;;;;;;;;;15.20;99.90;;;;;;5013925;28;19962;-25
2022/10/03 10:19:50;;;;;;;;;;;15.20;99.90;;;;;;5013892;28;20000;-24
2022/10/03 10:22:18;;;;;;;;;;;15.20;99.90;;;;;;5012234;28;20384;-25
2022/10/03 10:24:48;;;;;;;;;;;15.20;99.90;;;;;;5013754;28;20020;-24
2022/10/03 10:27:25;;;;;;;;;;;15.30;99.90;;;;;;5013534;28;19909;-24
2022/10/03 10:29:57;;;;;;;;;;;15.30;99.90;;;;;;5013392;28;19937;-24
2022/10/03 10:32:41;;;;;;;;;;;15.40;99.90;;;;;;5013537;28;20312;-24
2022/10/03 10:35:25;;;;;;;;;;;15.40;99.90;;;;;;5013416;28;19912;-24
2022/10/03 10:38:10;;;;;;;;;;;15.40;99.90;;;;;;5013354;28;20342;-24
2022/10/03 10:40:39;;;;;;;;;;;15.40;99.90;;;;;;5013204;28;20330;-24
2022/10/03 10:43:10;;;;;;;;;;;15.60;99.90;;;;;;5013720;28;19960;-24
2022/10/03 10:45:40;;;;;;;;;;;15.60;99.90;;;;;;5011936;28;19992;-24
2022/10/03 10:48:06;;;;;;;;;;;15.70;99.90;;;;;;5013045;28;19906;-24
2022/10/03 10:50:51;;;;;;;;;;;15.80;99.90;;;;;;5013046;28;19906;-24
2022/10/03 10:53:42;;;;;;;;;;;15.80;99.90;;;;;;5015737;28;20278;-25
2022/10/03 10:56:08;;;;;;;;;;;15.80;99.90;;;;;;5007271;28;20281;-24
2022/10/03 10:58:49;;;;;;;;;;;15.80;99.90;;;;;;5012846;28;20007;-25
2022/10/03 11:01:26;;;;;;;;;;;15.90;99.90;;;;;;5012914;28;19909;-25
2022/10/03 11:04:10;;;;;;;;;;;15.90;99.90;;;;;;5012924;28;19906;-24
2022/10/03 11:06:54;;;;;;;;;;;15.90;99.90;;;;;;5012941;28;20382;-24
2022/10/03 11:09:39;;;;;;;;;;;15.90;99.90;;;;;;5012720;28;20454;-24
2022/10/03 11:12:23;;;;;;;;;;;15.90;99.90;;;;;;5012648;28;20363;-24
2022/10/03 11:15:07;;;;;;;;;;;16.00;99.90;;;;;;5012617;28;20366;-25
2022/10/03 11:17:32;;;;;;;;;;;16.00;99.90;;;;;;5012759;28;20306;-24
2022/10/03 11:19:58;;;;;;;;;;;15.90;99.90;;;;;;5012435;28;19909;-24
2022/10/03 11:22:26;;;;;;;;;;;15.90;99.90;;;;;;5012479;28;19913;-24
2022/10/03 11:24:57;;;;;;;;;;;15.90;99.90;;;;;;5012477;28;19913;-25
2022/10/03 11:27:23;;;;;;;;;;;15.90;99.90;;;;;;5012563;28;19905;-24
2022/10/03 11:29:48;;;;;;;;;;;15.90;99.90;;;;;;5012254;28;19969;-25
2022/10/03 11:32:14;;;;;;;;;;;15.90;99.90;;;;;;5012262;28;19975;-24
2022/10/03 11:34:56;;;;;;;;;;;15.90;99.90;;;;;;5012638;28;19953;-25
2022/10/03 11:37:51;;;;;;;;;;;15.90;99.90;;;;;;5019798;28;19933;-25
2022/10/03 11:40:43;;;;;;;;;;;15.80;99.90;;;;;;5013198;28;20255;-25
2022/10/03 11:43:27;;;;;;;;;;;15.70;99.90;;;;;;5012477;28;19951;-25
2022/10/03 11:46:11;;;;;;;;;;;15.60;99.90;;;;;;5012437;28;19917;-24
2022/10/03 11:48:37;;;;;;;;;;;15.60;99.90;;;;;;5012409;28;19912;-24
2022/10/03 11:51:07;;;;;;;;;;;15.60;99.90;;;;;;5012370;28;19909;-24
2022/10/03 11:53:36;;;;;;;;;;;15.70;99.90;;;;;;5012808;28;20075;-24
2022/10/03 11:56:22;;;;;;;;;;;15.80;99.90;;;;;;5011960;28;20290;-24
2022/10/03 11:58:56;;;;;;;;;;;15.80;99.90;;;;;;5011668;28;20397;-24
2022/10/03 12:01:26;;;;;;;;;;;15.80;99.90;;;;;;5011887;28;19956;-24
2022/10/03 12:04:00;;;;;;;;;;;15.80;99.90;;;;;;5012101;28;19912;-24
2022/10/03 12:09:21;;;;;;;;;;;15.80;99.90;;;;;;5011646;28;19967;-25
2022/10/03 12:11:58;;;;;;;;;;;15.80;99.90;;;;;;5011939;28;20199;-24
2022/10/03 12:14:24;;;;;;;;;;;15.80;99.90;;;;;;5011975;28;19909;-24
2022/10/03 12:16:58;;;;;;;;;;;15.90;99.90;;;;;;5010671;28;19913;-25
2022/10/03 12:19:29;;;;;;;;;;;15.90;99.90;;;;;;5012880;28;19909;-24
2022/10/03 12:22:14;;;;;;;;;;;15.90;99.90;;;;;;5012228;28;19943;-25
2022/10/03 12:24:40;;;;;;;;;;;15.90;99.90;;;;;;5012046;28;19909;-25
2022/10/03 12:27:28;;;;;;;;;;;15.90;99.90;;;;;;5012205;28;19913;-24
2022/10/03 12:29:57;;;;;;;;;;;15.90;99.90;;;;;;5012140;28;19951;-25
2022/10/03 12:32:35;;;;;;;;;;;15.90;99.90;;;;;;5012209;28;19905;-24
2022/10/03 12:35:20;;;;;;;;;;;15.90;99.90;;;;;;5011832;28;20390;-24
2022/10/03 12:38:06;;;;;;;;;;;15.90;99.90;;;;;;5011974;28;20321;-25
2022/10/03 12:40:40;;;;;;;;;;;15.90;99.90;;;;;;5007521;28;19905;-25
2022/10/03 12:43:24;;;;;;;;;;;15.80;99.90;;;;;;5010515;28;19909;-25
2022/10/03 12:46:01;;;;;;;;;;;15.90;99.90;;;;;;5011969;28;19928;-25
2022/10/03 12:48:38;;;;;;;;;;;15.90;99.90;;;;;;5011954;28;19916;-25
2022/10/03 12:51:07;;;;;;;;;;;15.90;99.90;;;;;;5011887;28;19906;-24
2022/10/03 12:53:49;;;;;;;;;;;15.90;99.90;;;;;;5010929;28;19913;-25
2022/10/03 12:56:17;;;;;;;;;;;15.90;99.90;;;;;;5011837;28;19906;-25
2022/10/03 12:59:09;;;;;;;;;;;15.90;99.90;;;;;;5011636;28;19905;-24
2022/10/03 13:01:35;;;;;;;;;;;16.00;99.90;;;;;;5010511;28;19914;-24
2022/10/03 13:04:00;;;;;;;;;;;16.00;99.90;;;;;;5011703;28;20470;-25
2022/10/03 13:06:29;;;;;;;;;;;16.00;99.90;;;;;;5011628;28;20453;-25
2022/10/03 13:09:06;;;;;;;;;;;16.10;99.90;;;;;;5053053;22;19933;-26
2022/10/03 13:11:37;;;;;;;;;;;16.10;99.90;;;;;;5014872;28;19910;-26
2022/10/03 13:14:05;;;;;;;;;;;16.10;99.90;;;;;;5015327;28;19913;-26
2022/10/03 13:16:32;;;;;;;;;;;16.10;99.90;;;;;;5015205;28;20410;-27
2022/10/03 13:18:58;;;;;;;;;;;16.10;99.90;;;;;;5014596;28;19914;-26
2022/10/03 13:21:33;;;;;;;;;;;16.20;99.90;;;;;;5014506;28;19913;-26
2022/10/03 13:24:02;;;;;;;;;;;16.20;99.90;;;;;;5014743;28;19906;-26
2022/10/03 13:27:00;;;;;;;;;;;16.20;99.90;;;;;;5014439;28;19982;-27
2022/10/03 13:29:45;;;;;;;;;;;16.20;99.90;;;;;;5002103;28;19905;-26
2022/10/03 13:32:22;;;;;;;;;;;16.20;99.90;;;;;;5014421;28;20039;-27
2022/10/03 13:38:10;;;;;;;;;;;16.20;99.90;;;;;;4992265;28;20402;-26
2022/10/03 13:40:39;;;;;;;;;;;16.20;99.90;;;;;;5012766;28;19905;-27
2022/10/03 13:43:10;;;;;;;;;;;16.30;99.90;;;;;;5014272;28;20374;-26
2022/10/03 13:45:38;;;;;;;;;;;16.30;99.90;;;;;;5014447;28;19928;-26
2022/10/03 13:48:06;;;;;;;;;;;16.30;99.90;;;;;;5014378;28;20315;-27
2022/10/03 13:50:44;;;;;;;;;;;16.30;99.90;;;;;;5014394;28;19984;-26
2022/10/03 13:53:14;;;;;;;;;;;16.30;99.90;;;;;;5014950;28;19916;-26
2022/10/03 13:55:57;;;;;;;;;;;16.20;99.90;;;;;;5014713;28;19910;-26
2022/10/03 13:58:31;;;;;;;;;;;16.30;99.90;;;;;;5014766;28;19909;-26
2022/10/03 14:01:12;;;;;;;;;;;16.20;99.90;;;;;;5014253;28;20383;-27
2022/10/03 14:03:47;;;;;;;;;;;16.30;99.90;;;;;;5014954;28;20321;-27
2022/10/03 14:06:33;;;;;;;;;;;16.30;99.90;;;;;;5013194;28;19967;-26
2022/10/03 14:09:12;;;;;;;;;;;16.30;99.90;;;;;;5013971;28;19984;-26
2022/10/03 14:11:42;;;;;;;;;;;16.30;99.90;;;;;;5014222;28;19905;-26
2022/10/03 14:14:20;;;;;;;;;;;16.30;99.90;;;;;;5013912;28;19905;-26
2022/10/03 14:16:52;;;;;;;;;;;16.30;99.90;;;;;;5013972;28;20422;-26
2022/10/03 14:19:29;;;;;;;;;;;16.40;99.90;;;;;;5013154;28;19905;-26
2022/10/03 14:22:14;;;;;;;;;;;16.40;99.90;;;;;;5013672;28;19964;-27
2022/10/03 14:24:41;;;;;;;;;;;16.40;99.90;;;;;;5013516;28;19912;-26
2022/10/03 14:27:10;;;;;;;;;;;16.40;99.90;;;;;;5013520;28;19909;-26
2022/10/03 14:29:54;;;;;;;;;;;16.40;99.90;;;;;;5013569;28;20212;-26
2022/10/03 14:32:34;;;;;;;;;;;16.50;99.90;;;;;;5013501;28;20087;-26
2022/10/03 14:35:06;;;;;;;;;;;16.50;99.90;;;;;;5013361;28;19906;-26
2022/10/03 14:37:38;;;;;;;;;;;16.50;99.90;;;;;;5013284;28;19917;-26
2022/10/03 14:40:19;;;;;;;;;;;16.50;99.90;;;;;;5013166;28;19912;-26
2022/10/03 14:42:47;;;;;;;;;;;16.60;99.90;;;;;;5013232;28;19972;-26
2022/10/03 14:45:15;;;;;;;;;;;16.60;99.90;;;;;;5013267;28;19914;-26
2022/10/03 14:47:45;;;;;;;;;;;16.60;99.90;;;;;;5013007;28;19980;-26
2022/10/03 14:50:16;;;;;;;;;;;16.60;99.90;;;;;;5012977;28;19905;-26
2022/10/03 14:52:54;;;;;;;;;;;16.70;99.90;;;;;;5013548;28;19905;-26
2022/10/03 14:55:24;;;;;;;;;;;16.70;99.90;;;;;;5013698;28;19906;-26
2022/10/03 14:57:51;;;;;;;;;;;16.70;99.90;;;;;;5012892;28;20381;-26
2022/10/03 15:00:24;;;;;;;;;;;16.70;99.90;;;;;;5012677;28;20507;-26
2022/10/03 15:02:50;;;;;;;;;;;16.80;99.90;;;;;;5013091;28;19909;-26
2022/10/03 15:05:41;;;;;;;;;;;16.70;99.90;;;;;;5013131;28;19905;-26
2022/10/03 15:08:13;;;;;;;;;;;16.70;99.90;;;;;;5004125;28;19917;-26
2022/10/03 15:10:39;;;;;;;;;;;16.70;99.90;;;;;;5012444;28;19909;-26
2022/10/03 15:13:08;;;;;;;;;;;16.80;99.90;;;;;;5012716;28;19906;-26
2022/10/03 15:15:38;;;;;;;;;;;16.70;99.90;;;;;;5012524;28;20367;-26
2022/10/03 15:18:06;;;;;;;;;;;16.70;99.90;;;;;;5012504;28;19916;-26
2022/10/03 15:20:42;;;;;;;;;;;16.70;99.90;;;;;;5012305;28;19905;-26